createdAt,value
2022-10-08T00:01:30.514Z,9.26
2022-10-08T00:03:59.006Z,9.25
2022-10-08T00:06:30.263Z,9.24
2022-10-08T00:09:04.826Z,9.24
2022-10-08T00:11:36.356Z,9.25
2022-10-08T00:14:05.469Z,9.27
2022-10-08T00:16:36.695Z,9.27
2022-10-08T00:19:08.009Z,9.27
2022-10-08T00:21:38.550Z,9.23
2022-10-08T00:24:08.396Z,9.16
2022-10-08T00:26:42.541Z,9.11
2022-10-08T00:29:13.429Z,9.06
2022-10-08T00:31:44.969Z,9.00
2022-10-08T00:34:31.141Z,8.96
2022-10-08T00:36:59.130Z,8.94
2022-10-08T00:39:27.070Z,8.93
2022-10-08T00:41:56.314Z,8.92
2022-10-08T00:44:42.813Z,8.90
2022-10-08T00:47:33.110Z,8.90
2022-10-08T00:50:24.796Z,8.89
2022-10-08T00:52:58.713Z,8.90
2022-10-08T00:55:29.940Z,8.90
2022-10-08T00:58:02.325Z,8.88
2022-10-08T01:00:31.396Z,8.86
2022-10-08T01:03:00.862Z,8.86
2022-10-08T01:05:42.184Z,8.86
2022-10-08T01:08:33.819Z,8.86
2022-10-08T01:11:04.815Z,8.85
2022-10-08T01:13:56.609Z,8.82
2022-10-08T01:16:35.038Z,8.79
2022-10-08T01:19:40.950Z,8.75
2022-10-08T01:22:25.602Z,8.69
2022-10-08T01:25:15.884Z,8.63
2022-10-08T01:27:47.258Z,8.57
2022-10-08T01:30:18.169Z,8.52
2022-10-08T01:33:12.606Z,8.48
2022-10-08T01:35:44.760Z,8.43
2022-10-08T01:38:16.725Z,8.41
2022-10-08T01:40:50.201Z,8.39
2022-10-08T01:43:22.149Z,8.36
2022-10-08T01:45:57.364Z,8.30
2022-10-08T01:48:36.668Z,8.25
2022-10-08T01:51:09.453Z,8.20
2022-10-08T01:53:39.925Z,8.16
2022-10-08T01:56:12.280Z,8.12
2022-10-08T01:58:56.228Z,8.09
2022-10-08T02:01:37.737Z,8.06
2022-10-08T02:04:24.778Z,8.03
2022-10-08T02:06:57.303Z,7.98
2022-10-08T02:09:29.295Z,7.95
2022-10-08T02:11:57.829Z,7.93
2022-10-08T02:14:27.732Z,7.93
2022-10-08T02:17:07.475Z,7.93
2022-10-08T02:19:54.753Z,7.93
2022-10-08T02:22:29.209Z,7.92
2022-10-08T02:25:12.360Z,7.91
2022-10-08T02:28:00.791Z,7.90
2022-10-08T02:30:56.787Z,7.86
2022-10-08T02:33:26.965Z,7.83
2022-10-08T02:35:59.718Z,7.78
2022-10-08T02:38:35.282Z,7.74
2022-10-08T02:41:07.895Z,7.72
2022-10-08T02:43:40.452Z,7.74
2022-10-08T02:46:17.980Z,7.75
2022-10-08T02:49:02.797Z,7.75
2022-10-08T02:51:33.077Z,7.74
2022-10-08T02:54:04.369Z,7.71
2022-10-08T02:56:38.978Z,7.68
2022-10-08T02:59:07.471Z,7.63
2022-10-08T03:01:53.387Z,7.64
2022-10-08T03:04:46.884Z,7.64
2022-10-08T03:07:15.776Z,7.64
2022-10-08T03:09:47.545Z,7.61
2022-10-08T03:12:15.588Z,7.59
2022-10-08T03:14:48.165Z,7.56
2022-10-08T03:17:30.814Z,7.53
2022-10-08T03:20:03.274Z,7.53
2022-10-08T03:22:34.337Z,7.52
2022-10-08T03:25:02.344Z,7.49
2022-10-08T03:27:30.396Z,7.49
2022-10-08T03:30:00.266Z,7.49
2022-10-08T03:32:28.625Z,7.52
2022-10-08T03:34:56.678Z,7.52
2022-10-08T03:37:24.652Z,7.53
2022-10-08T03:39:52.609Z,7.56
2022-10-08T03:42:20.421Z,7.58
2022-10-08T03:44:48.113Z,7.59
2022-10-08T03:47:15.905Z,7.53
2022-10-08T03:49:43.808Z,7.47
2022-10-08T03:52:11.601Z,7.43
2022-10-08T03:54:39.470Z,7.38
2022-10-08T03:57:07.426Z,7.33
2022-10-08T03:59:35.428Z,7.32
2022-10-08T04:02:03.337Z,7.30
2022-10-08T04:04:31.671Z,7.29
2022-10-08T04:06:59.766Z,7.28
2022-10-08T04:09:31.664Z,7.27
2022-10-08T04:12:00.003Z,7.27
2022-10-08T04:14:27.983Z,7.27
2022-10-08T04:16:55.827Z,7.27
2022-10-08T04:19:23.634Z,7.27
2022-10-08T04:21:51.628Z,7.26
2022-10-08T04:24:19.436Z,7.26
2022-10-08T04:26:47.337Z,7.23
2022-10-08T04:29:15.129Z,7.20
2022-10-08T04:31:43.002Z,7.18
2022-10-08T04:34:11.706Z,7.15
2022-10-08T04:36:39.727Z,7.14
2022-10-08T04:39:07.674Z,7.13
2022-10-08T04:41:35.672Z,7.13
2022-10-08T04:44:03.521Z,7.11
2022-10-08T04:46:31.568Z,7.08
2022-10-08T04:49:00.250Z,7.10
2022-10-08T04:51:28.897Z,7.11
2022-10-08T04:53:58.535Z,7.12
2022-10-08T04:56:29.458Z,7.12
2022-10-08T04:58:59.073Z,7.13
2022-10-08T05:01:28.487Z,7.13
2022-10-08T05:03:58.537Z,7.11
2022-10-08T05:06:29.436Z,7.11
2022-10-08T05:09:02.539Z,7.12
2022-10-08T05:11:31.423Z,7.13
2022-10-08T05:13:59.688Z,7.16
2022-10-08T05:16:28.248Z,7.18
2022-10-08T05:18:56.615Z,7.23
2022-10-08T05:21:27.364Z,7.29
2022-10-08T05:23:59.376Z,7.33
2022-10-08T05:26:56.342Z,7.37
2022-10-08T05:29:19.353Z,7.42
2022-10-08T05:31:47.387Z,7.45
2022-10-08T05:34:15.608Z,7.47
2022-10-08T05:36:43.894Z,7.52
2022-10-08T05:39:11.900Z,7.58
2022-10-08T05:41:40.981Z,7.64
2022-10-08T05:44:10.704Z,7.71
2022-10-08T05:46:39.956Z,7.79
2022-10-08T05:49:16.418Z,7.87
2022-10-08T05:51:44.294Z,7.95
2022-10-08T05:54:12.252Z,8.02
2022-10-08T05:56:40.111Z,8.09
2022-10-08T05:59:15.334Z,8.15
2022-10-08T06:01:43.229Z,8.22
2022-10-08T06:04:11.682Z,8.28
2022-10-08T06:06:41.997Z,8.36
2022-10-08T06:09:16.327Z,8.43
2022-10-08T06:11:44.107Z,8.48
2022-10-08T06:14:16.627Z,8.53
2022-10-08T06:16:44.773Z,8.59
2022-10-08T06:19:12.854Z,8.65
2022-10-08T06:21:40.985Z,8.72
2022-10-08T06:24:11.340Z,8.77
2022-10-08T06:26:42.448Z,8.82
2022-10-08T06:29:18.155Z,8.87
2022-10-08T06:31:47.005Z,8.91
2022-10-08T06:34:15.458Z,8.99
2022-10-08T06:36:43.300Z,9.09
2022-10-08T06:39:13.412Z,9.17
2022-10-08T06:41:41.835Z,9.25
2022-10-08T06:44:13.434Z,9.32
2022-10-08T06:46:42.688Z,9.38
2022-10-08T06:49:11.699Z,9.44
2022-10-08T06:51:39.724Z,9.51
2022-10-08T06:54:08.655Z,9.57
2022-10-08T06:56:38.299Z,9.65
2022-10-08T06:59:07.884Z,9.76
2022-10-08T07:01:36.482Z,9.86
2022-10-08T07:04:05.694Z,9.95
2022-10-08T07:06:34.711Z,10.08
2022-10-08T07:09:04.807Z,10.22
2022-10-08T07:11:33.805Z,10.35
2022-10-08T07:14:02.211Z,10.49
2022-10-08T07:16:30.561Z,10.63
2022-10-08T07:18:58.877Z,10.73
2022-10-08T07:21:28.943Z,10.84
2022-10-08T07:23:59.620Z,10.96
2022-10-08T07:26:30.677Z,11.13
2022-10-08T07:29:13.262Z,11.27
2022-10-08T07:31:41.158Z,11.43
2022-10-08T07:34:13.064Z,11.53
2022-10-08T07:36:41.426Z,11.62
2022-10-08T07:39:14.928Z,11.73
2022-10-08T07:41:42.818Z,11.82
2022-10-08T07:44:12.154Z,11.91
2022-10-08T07:46:46.021Z,12.01
2022-10-08T07:49:13.688Z,12.12
2022-10-08T07:51:44.330Z,12.22
2022-10-08T07:54:15.411Z,12.36
2022-10-08T07:56:43.452Z,12.49
2022-10-08T07:59:15.090Z,12.61
2022-10-08T08:01:44.069Z,12.72
2022-10-08T08:04:12.083Z,12.81
2022-10-08T08:06:45.567Z,12.89
2022-10-08T08:09:14.447Z,12.96
2022-10-08T08:11:42.476Z,13.07
2022-10-08T08:14:10.516Z,13.13
2022-10-08T08:16:39.303Z,13.24
2022-10-08T08:19:07.423Z,13.35
2022-10-08T08:21:38.024Z,13.47
2022-10-08T08:24:09.736Z,13.55
2022-10-08T08:26:39.436Z,13.60
2022-10-08T08:29:15.990Z,13.63
2022-10-08T08:31:46.233Z,13.65
2022-10-08T08:34:22.540Z,13.66
2022-10-08T08:36:53.661Z,13.65
2022-10-08T08:39:26.706Z,13.68
2022-10-08T08:42:03.219Z,13.75
2022-10-08T08:44:39.302Z,13.83
2022-10-08T08:47:16.286Z,13.92
2022-10-08T08:49:49.601Z,14.03
2022-10-08T08:52:23.207Z,14.14
2022-10-08T08:54:53.433Z,14.22
2022-10-08T08:57:42.579Z,14.30
2022-10-08T09:00:18.689Z,14.38
2022-10-08T09:03:25.093Z,14.42
2022-10-08T09:05:57.631Z,14.51
2022-10-08T09:08:37.626Z,14.59
2022-10-08T09:11:05.576Z,14.69
2022-10-08T09:13:39.987Z,14.79
2022-10-08T09:16:12.746Z,14.89
2022-10-08T09:18:45.197Z,14.97
2022-10-08T09:21:13.237Z,15.04
2022-10-08T09:23:41.255Z,15.12
2022-10-08T09:26:24.586Z,15.19
2022-10-08T09:28:55.119Z,15.27
2022-10-08T09:31:48.077Z,15.36
2022-10-08T09:34:20.090Z,15.46
2022-10-08T09:36:52.541Z,15.55
2022-10-08T09:39:23.443Z,15.63
2022-10-08T09:42:10.382Z,15.71
2022-10-08T09:44:56.887Z,15.82
2022-10-08T09:47:27.517Z,15.94
2022-10-08T09:50:19.172Z,16.06
2022-10-08T09:52:50.688Z,16.18
2022-10-08T09:55:31.669Z,16.31
2022-10-08T09:58:04.275Z,16.44
2022-10-08T10:00:35.603Z,16.57
2022-10-08T10:03:06.477Z,16.70
2022-10-08T10:05:36.895Z,16.80
2022-10-08T10:08:07.086Z,16.90
2022-10-08T10:10:41.844Z,17.03
2022-10-08T10:13:34.991Z,17.14
2022-10-08T10:16:06.791Z,17.24
2022-10-08T10:18:42.815Z,17.34
2022-10-08T10:21:16.303Z,17.40
2022-10-08T10:24:01.084Z,17.46
2022-10-08T10:26:35.789Z,17.53
2022-10-08T10:29:17.156Z,17.59
2022-10-08T10:32:06.767Z,17.62
2022-10-08T10:34:39.952Z,17.66
2022-10-08T10:37:18.565Z,17.68
2022-10-08T10:39:53.561Z,17.74
2022-10-08T10:42:41.363Z,17.79
2022-10-08T10:45:25.958Z,17.88
2022-10-08T10:47:54.485Z,18.00
2022-10-08T10:50:38.111Z,18.16
2022-10-08T10:53:11.836Z,18.35
2022-10-08T10:56:16.045Z,18.54
2022-10-08T10:58:43.896Z,18.77
2022-10-08T11:01:12.373Z,18.89
2022-10-08T11:04:13.007Z,19.00
2022-10-08T11:06:55.085Z,19.09
2022-10-08T11:09:54.329Z,19.14
2022-10-08T11:12:29.919Z,19.15
2022-10-08T11:15:38.488Z,19.10
2022-10-08T11:18:22.996Z,19.05
2022-10-08T11:20:53.733Z,19.02
2022-10-08T11:23:39.652Z,18.95
2022-10-08T11:26:35.288Z,18.91
2022-10-08T11:29:18.397Z,18.87
2022-10-08T11:31:49.867Z,18.80
2022-10-08T11:34:23.859Z,18.73
2022-10-08T11:37:13.097Z,18.66
2022-10-08T11:39:56.610Z,18.63
2022-10-08T11:42:56.802Z,18.62
2022-10-08T11:45:24.750Z,18.62
2022-10-08T11:47:56.149Z,18.63
2022-10-08T11:50:30.225Z,18.62
2022-10-08T11:53:15.444Z,18.62
2022-10-08T11:55:54.438Z,18.60
2022-10-08T11:58:33.677Z,18.59
2022-10-08T12:01:11.374Z,18.58
2022-10-08T12:03:41.661Z,18.57
2022-10-08T12:06:28.442Z,18.59
2022-10-08T12:09:01.496Z,18.62
2022-10-08T12:11:37.033Z,18.63
2022-10-08T12:14:15.579Z,18.64
2022-10-08T12:16:55.748Z,18.65
2022-10-08T12:19:38.737Z,18.67
2022-10-08T12:22:16.423Z,18.68
2022-10-08T12:24:49.633Z,18.70
2022-10-08T12:27:18.712Z,18.72
2022-10-08T12:30:01.823Z,18.74
2022-10-08T12:32:41.651Z,18.75
2022-10-08T12:35:29.504Z,18.76
2022-10-08T12:38:02.694Z,18.78
2022-10-08T12:41:06.585Z,18.80
2022-10-08T12:43:46.696Z,18.83
2022-10-08T12:46:50.473Z,18.85
2022-10-08T12:49:32.867Z,18.88
2022-10-08T12:52:12.702Z,18.90
2022-10-08T12:54:48.293Z,18.91
2022-10-08T12:57:24.244Z,18.92
2022-10-08T12:59:53.880Z,18.95
2022-10-08T13:02:41.964Z,18.97
2022-10-08T13:05:30.702Z,18.98
2022-10-08T13:07:59.253Z,18.97
2022-10-08T13:10:29.728Z,18.97
2022-10-08T13:13:06.910Z,18.97
2022-10-08T13:15:35.007Z,18.97
2022-10-08T13:18:14.927Z,18.96
2022-10-08T13:20:57.331Z,18.94
2022-10-08T13:23:37.657Z,18.91
2022-10-08T13:26:44.007Z,18.89
2022-10-08T13:29:17.911Z,18.85
2022-10-08T13:31:52.458Z,18.83
2022-10-08T13:34:20.839Z,18.82
2022-10-08T13:36:53.095Z,18.82
2022-10-08T13:39:23.410Z,18.83
2022-10-08T13:41:57.633Z,18.84
2022-10-08T13:44:27.610Z,18.85
2022-10-08T13:46:58.922Z,18.86
2022-10-08T13:49:29.906Z,18.86
2022-10-08T13:51:58.914Z,18.85
2022-10-08T13:54:30.676Z,18.85
2022-10-08T13:56:59.497Z,18.85
2022-10-08T13:59:30.630Z,18.85
2022-10-08T14:01:58.929Z,18.85
2022-10-08T14:04:27.262Z,18.82
2022-10-08T14:06:57.825Z,18.80
2022-10-08T14:09:28.917Z,18.76
2022-10-08T14:12:01.360Z,18.71
2022-10-08T14:14:29.352Z,18.65
2022-10-08T14:16:57.252Z,18.59
2022-10-08T14:19:25.087Z,18.54
2022-10-08T14:21:55.776Z,18.49
2022-10-08T14:24:23.727Z,18.44
2022-10-08T14:26:51.769Z,18.40
2022-10-08T14:29:19.531Z,18.35
2022-10-08T14:31:47.468Z,18.30
2022-10-08T14:34:15.423Z,18.26
2022-10-08T14:36:43.485Z,18.20
2022-10-08T14:39:11.592Z,18.14
2022-10-08T14:41:40.952Z,18.06
2022-10-08T14:44:08.733Z,17.98
2022-10-08T14:46:36.712Z,17.90
2022-10-08T14:49:05.443Z,17.82
2022-10-08T14:51:38.602Z,17.74
2022-10-08T14:54:10.809Z,17.66
2022-10-08T14:56:39.046Z,17.58
2022-10-08T14:59:15.224Z,17.52
2022-10-08T15:01:43.471Z,17.44
2022-10-08T15:04:14.810Z,17.35
2022-10-08T15:06:43.110Z,17.27
2022-10-08T15:09:14.506Z,17.20
2022-10-08T15:11:43.244Z,17.11
2022-10-08T15:14:11.038Z,17.03
2022-10-08T15:16:39.733Z,16.94
2022-10-08T15:19:08.354Z,16.86
2022-10-08T15:21:36.488Z,16.79
2022-10-08T15:24:04.555Z,16.73
2022-10-08T15:26:32.777Z,16.66
2022-10-08T15:29:03.028Z,16.61
2022-10-08T15:31:31.063Z,16.57
2022-10-08T15:34:01.970Z,16.52
2022-10-08T15:36:32.943Z,16.47
2022-10-08T15:39:07.739Z,16.42
2022-10-08T15:41:37.648Z,16.36
2022-10-08T15:44:26.564Z,16.30
2022-10-08T15:46:59.859Z,16.22
2022-10-08T15:49:31.845Z,16.16
2022-10-08T15:52:00.288Z,16.09
2022-10-08T15:54:28.276Z,16.02
2022-10-08T15:56:56.227Z,15.95
2022-10-08T15:59:26.997Z,15.90
2022-10-08T16:01:54.968Z,15.85
2022-10-08T16:04:22.880Z,15.81
2022-10-08T16:06:51.727Z,15.78
2022-10-08T16:09:21.844Z,15.75
2022-10-08T16:11:50.955Z,15.70
2022-10-08T16:14:21.762Z,15.65
2022-10-08T16:16:50.566Z,15.62
2022-10-08T16:19:21.473Z,15.58
2022-10-08T16:21:52.728Z,15.53
2022-10-08T16:24:20.832Z,15.48
2022-10-08T16:26:49.022Z,15.44
2022-10-08T16:29:18.395Z,15.40
2022-10-08T16:31:47.317Z,15.38
2022-10-08T16:34:18.272Z,15.34
2022-10-08T16:36:48.414Z,15.31
2022-10-08T16:39:18.734Z,15.29
2022-10-08T16:41:47.897Z,15.26
2022-10-08T16:44:18.758Z,15.21
2022-10-08T16:46:53.235Z,15.15
2022-10-08T16:49:27.092Z,15.10
2022-10-08T16:52:03.381Z,15.05
2022-10-08T16:54:31.694Z,15.01
2022-10-08T16:56:59.923Z,14.98
2022-10-08T16:59:29.534Z,14.95
2022-10-08T17:01:59.438Z,14.92
2022-10-08T17:04:29.245Z,14.88
2022-10-08T17:06:57.554Z,14.83
2022-10-08T17:09:25.361Z,14.79
2022-10-08T17:11:53.575Z,14.75
2022-10-08T17:14:24.668Z,14.70
2022-10-08T17:16:52.865Z,14.65
2022-10-08T17:19:20.766Z,14.63
2022-10-08T17:21:48.636Z,14.59
2022-10-08T17:24:16.655Z,14.55
2022-10-08T17:26:44.547Z,14.52
2022-10-08T17:29:13.016Z,14.50
2022-10-08T17:31:41.739Z,14.48
2022-10-08T17:34:11.699Z,14.45
2022-10-08T17:36:42.736Z,14.42
2022-10-08T17:39:13.612Z,14.39
2022-10-08T17:41:43.253Z,14.35
2022-10-08T17:44:12.149Z,14.31
2022-10-08T17:46:47.003Z,14.28
2022-10-08T17:49:17.241Z,14.24
2022-10-08T17:51:46.159Z,14.20
2022-10-08T17:54:17.536Z,14.17
2022-10-08T17:56:46.426Z,14.14
2022-10-08T17:59:16.414Z,14.09
2022-10-08T18:01:45.794Z,14.05
2022-10-08T18:04:16.504Z,14.03
2022-10-08T18:06:46.658Z,14.01
2022-10-08T18:09:18.563Z,14.00
2022-10-08T18:11:50.928Z,13.99
2022-10-08T18:14:20.295Z,13.99
2022-10-08T18:16:48.945Z,13.99
2022-10-08T18:19:18.406Z,13.99
2022-10-08T18:21:46.836Z,13.98
2022-10-08T18:24:16.247Z,13.96
2022-10-08T18:26:44.510Z,13.95
2022-10-08T18:29:16.171Z,13.95
2022-10-08T18:31:45.015Z,13.95
2022-10-08T18:34:16.592Z,13.95
2022-10-08T18:36:46.169Z,13.93
2022-10-08T18:39:17.852Z,13.91
2022-10-08T18:41:48.032Z,13.90
2022-10-08T18:44:24.566Z,13.88
2022-10-08T18:46:52.933Z,13.86
2022-10-08T18:49:30.456Z,13.82
2022-10-08T18:51:59.053Z,13.79
2022-10-08T18:54:27.468Z,13.76
2022-10-08T18:56:56.840Z,13.72
2022-10-08T18:59:24.765Z,13.70
2022-10-08T19:01:56.981Z,13.68
2022-10-08T19:04:32.741Z,13.67
2022-10-08T19:07:00.697Z,13.65
2022-10-08T19:09:28.923Z,13.61
2022-10-08T19:11:57.867Z,13.57
2022-10-08T19:14:25.971Z,13.53
2022-10-08T19:17:01.591Z,13.52
2022-10-08T19:19:31.798Z,13.51
2022-10-08T19:22:01.436Z,13.49
2022-10-08T19:24:29.475Z,13.47
2022-10-08T19:27:01.461Z,13.46
2022-10-08T19:29:33.406Z,13.44
2022-10-08T19:32:03.633Z,13.44
2022-10-08T19:34:31.632Z,13.46
2022-10-08T19:36:59.504Z,13.44
2022-10-08T19:39:30.968Z,13.41
2022-10-08T19:41:59.020Z,13.39
2022-10-08T19:44:26.996Z,13.38
2022-10-08T19:46:54.970Z,13.37
2022-10-08T19:49:24.225Z,13.36
2022-10-08T19:51:53.790Z,13.33
2022-10-08T19:54:21.819Z,13.32
2022-10-08T19:56:49.806Z,13.32
2022-10-08T19:59:18.604Z,13.31
2022-10-08T20:01:46.749Z,13.31
2022-10-08T20:04:16.811Z,13.31
2022-10-08T20:06:44.747Z,13.32
2022-10-08T20:09:14.387Z,13.32
2022-10-08T20:11:45.205Z,13.32
2022-10-08T20:14:14.486Z,13.31
2022-10-08T20:16:43.472Z,13.30
2022-10-08T20:19:19.410Z,13.30
2022-10-08T20:21:49.331Z,13.29
2022-10-08T20:24:19.033Z,13.26
2022-10-08T20:26:49.289Z,13.21
2022-10-08T20:29:20.050Z,13.17
2022-10-08T20:31:50.766Z,13.14
2022-10-08T20:34:21.203Z,13.10
2022-10-08T20:36:50.191Z,13.06
2022-10-08T20:39:19.874Z,13.04
2022-10-08T20:41:48.151Z,13.03
2022-10-08T20:44:16.864Z,13.01
2022-10-08T20:46:44.790Z,13.00
2022-10-08T20:49:13.397Z,13.00
2022-10-08T20:51:42.849Z,12.98
2022-10-08T20:54:13.678Z,12.92
2022-10-08T20:56:42.893Z,12.86
2022-10-08T20:59:16.828Z,12.81
2022-10-08T21:01:45.507Z,12.75
2022-10-08T21:04:13.602Z,12.69
2022-10-08T21:06:46.600Z,12.64
2022-10-08T21:09:16.934Z,12.59
2022-10-08T21:11:48.120Z,12.55
2022-10-08T21:14:22.635Z,12.53
2022-10-08T21:16:51.361Z,12.48
2022-10-08T21:19:22.259Z,12.43
2022-10-08T21:21:50.848Z,12.40
2022-10-08T21:24:18.755Z,12.38
2022-10-08T21:26:46.988Z,12.35
2022-10-08T21:29:15.454Z,12.33
2022-10-08T21:31:43.415Z,12.34
2022-10-08T21:34:13.059Z,12.36
2022-10-08T21:36:41.788Z,12.40
2022-10-08T21:39:15.780Z,12.41
2022-10-08T21:41:43.767Z,12.40
2022-10-08T21:44:12.314Z,12.39
2022-10-08T21:46:42.241Z,12.36
2022-10-08T21:49:16.961Z,12.30
2022-10-08T21:51:45.063Z,12.25
2022-10-08T21:54:14.106Z,12.20
2022-10-08T21:56:43.080Z,12.14
2022-10-08T21:59:14.160Z,12.09
2022-10-08T22:01:47.865Z,12.00
2022-10-08T22:04:17.425Z,11.92
2022-10-08T22:06:48.705Z,11.84
2022-10-08T22:09:20.837Z,11.77
2022-10-08T22:11:49.706Z,11.71
2022-10-08T22:14:18.321Z,11.66
2022-10-08T22:16:46.977Z,11.62
2022-10-08T22:19:16.033Z,11.55
2022-10-08T22:21:44.816Z,11.49
2022-10-08T22:24:12.643Z,11.46
2022-10-08T22:26:43.945Z,11.43
2022-10-08T22:29:12.156Z,11.39
2022-10-08T22:31:40.875Z,11.36
2022-10-08T22:34:09.032Z,11.33
2022-10-08T22:36:40.410Z,11.30
2022-10-08T22:39:09.462Z,11.24
2022-10-08T22:41:37.749Z,11.21
2022-10-08T22:44:06.345Z,11.19
2022-10-08T22:46:37.906Z,11.17
2022-10-08T22:49:11.009Z,11.15
2022-10-08T22:51:39.693Z,11.15
2022-10-08T22:54:07.963Z,11.12
2022-10-08T22:56:37.142Z,11.09
2022-10-08T22:59:05.093Z,11.06
2022-10-08T23:01:32.985Z,11.02
2022-10-08T23:04:00.902Z,10.98
2022-10-08T23:06:32.087Z,10.97
2022-10-08T23:09:03.449Z,10.97
2022-10-08T23:11:31.943Z,10.97
2022-10-08T23:14:01.029Z,10.97
2022-10-08T23:16:31.299Z,10.96
2022-10-08T23:19:01.573Z,10.95
2022-10-08T23:21:30.318Z,10.94
2022-10-08T23:23:59.512Z,10.94
2022-10-08T23:26:28.752Z,10.95
2022-10-08T23:28:59.680Z,10.96
2022-10-08T23:31:30.458Z,10.98
2022-10-08T23:34:00.956Z,11.01
2022-10-08T23:36:32.326Z,11.03
2022-10-08T23:39:00.323Z,11.05
2022-10-08T23:41:29.113Z,11.06
2022-10-08T23:43:58.727Z,11.08
2022-10-08T23:46:28.958Z,11.09
2022-10-08T23:48:58.219Z,11.10
2022-10-08T23:51:34.198Z,11.09
2022-10-08T23:54:02.344Z,11.08
2022-10-08T23:56:30.824Z,11.08
2022-10-08T23:58:59.084Z,11.09
